sensor_id;sensor_type;location;lat;lon;timestamp;P1;durP1;ratioP1;P2;durP2;ratioP2
74644;SDS011;63163;55.630;37.594;2023-04-01T00:00:55;12.9;;;7.1;;
74644;SDS011;63163;55.630;37.594;2023-04-01T00:01:55;12.3;;;7.1;;
74644;SDS011;63163;55.630;37.594;2023-04-01T00:02:56;12.3;;;7.3;;
74644;SDS011;63163;55.630;37.594;2023-04-01T00:03:57;13.0;;;7.4;;
74644;SDS011;63163;55.630;37.594;2023-04-01T00:04:57;13.0;;;7.2;;
74644;SDS011;63163;55.630;37.594;2023-04-01T00:05:58;12.7;;;6.6;;
74644;SDS011;63163;55.630;37.594;2023-04-01T00:06:59;11.2;;;6.7;;
74644;SDS011;63163;55.630;37.594;2023-04-01T00:08:00;12.2;;;7.2;;
74644;SDS011;63163;55.630;37.594;2023-04-01T00:09:01;11.4;;;6.8;;
74644;SDS011;63163;55.630;37.594;2023-04-01T00:10:01;13.1;;;7.4;;
74644;SDS011;63163;55.630;37.594;2023-04-01T00:11:02;12.4;;;7.1;;
74644;SDS011;63163;55.630;37.594;2023-04-01T00:12:03;11.8;;;7.1;;
74644;SDS011;63163;55.630;37.594;2023-04-01T00:13:03;13.1;;;7.4;;
74644;SDS011;63163;55.630;37.594;2023-04-01T00:14:04;13.0;;;7.3;;
74644;SDS011;63163;55.630;37.594;2023-04-01T00:15:06;12.7;;;6.9;;
74644;SDS011;63163;55.630;37.594;2023-04-01T00:16:07;13.4;;;7.0;;
74644;SDS011;63163;55.630;37.594;2023-04-01T00:17:08;12.7;;;7.2;;
74644;SDS011;63163;55.630;37.594;2023-04-01T00:18:08;12.1;;;7.3;;
74644;SDS011;63163;55.630;37.594;2023-04-01T00:19:09;11.8;;;7.6;;
74644;SDS011;63163;55.630;37.594;2023-04-01T00:20:10;14.0;;;8.2;;
74644;SDS011;63163;55.630;37.594;2023-04-01T00:21:11;12.5;;;7.4;;
74644;SDS011;63163;55.630;37.594;2023-04-01T00:22:12;12.3;;;7.7;;
74644;SDS011;63163;55.630;37.594;2023-04-01T00:23:12;12.1;;;7.5;;
74644;SDS011;63163;55.630;37.594;2023-04-01T00:24:13;12.1;;;7.5;;
74644;SDS011;63163;55.630;37.594;2023-04-01T00:25:14;11.7;;;7.3;;
74644;SDS011;63163;55.630;37.594;2023-04-01T00:26:15;14.4;;;8.3;;
74644;SDS011;63163;55.630;37.594;2023-04-01T00:27:19;13.3;;;7.5;;
74644;SDS011;63163;55.630;37.594;2023-04-01T00:28:20;12.4;;;7.2;;
74644;SDS011;63163;55.630;37.594;2023-04-01T00:29:21;14.1;;;7.5;;
74644;SDS011;63163;55.630;37.594;2023-04-01T00:30:21;12.5;;;7.1;;
74644;SDS011;63163;55.630;37.594;2023-04-01T00:31:22;13.0;;;7.3;;
74644;SDS011;63163;55.630;37.594;2023-04-01T00:32:22;13.0;;;7.9;;
74644;SDS011;63163;55.630;37.594;2023-04-01T00:33:23;12.2;;;7.4;;
74644;SDS011;63163;55.630;37.594;2023-04-01T00:34:24;12.8;;;7.1;;
74644;SDS011;63163;55.630;37.594;2023-04-01T00:35:24;12.0;;;7.0;;
74644;SDS011;63163;55.630;37.594;2023-04-01T00:36:25;13.0;;;7.3;;
74644;SDS011;63163;55.630;37.594;2023-04-01T00:37:26;14.2;;;7.7;;
74644;SDS011;63163;55.630;37.594;2023-04-01T00:38:27;13.1;;;7.5;;
74644;SDS011;63163;55.630;37.594;2023-04-01T00:39:28;13.7;;;7.8;;
74644;SDS011;63163;55.630;37.594;2023-04-01T00:40:30;12.0;;;7.3;;
74644;SDS011;63163;55.630;37.594;2023-04-01T00:41:30;12.9;;;7.7;;
74644;SDS011;63163;55.630;37.594;2023-04-01T00:42:31;14.2;;;7.8;;
74644;SDS011;63163;55.630;37.594;2023-04-01T00:43:32;13.8;;;8.0;;
74644;SDS011;63163;55.630;37.594;2023-04-01T00:44:33;12.8;;;7.5;;
74644;SDS011;63163;55.630;37.594;2023-04-01T00:45:35;15.3;;;8.2;;
74644;SDS011;63163;55.630;37.594;2023-04-01T00:46:36;12.1;;;7.4;;
74644;SDS011;63163;55.630;37.594;2023-04-01T00:47:36;14.0;;;8.0;;
74644;SDS011;63163;55.630;37.594;2023-04-01T00:48:38;13.4;;;7.7;;
74644;SDS011;63163;55.630;37.594;2023-04-01T00:49:40;12.6;;;7.3;;
74644;SDS011;63163;55.630;37.594;2023-04-01T00:50:43;12.2;;;7.1;;
74644;SDS011;63163;55.630;37.594;2023-04-01T00:51:45;13.5;;;8.1;;
74644;SDS011;63163;55.630;37.594;2023-04-01T00:52:48;12.8;;;7.8;;
74644;SDS011;63163;55.630;37.594;2023-04-01T00:53:50;13.8;;;7.8;;
74644;SDS011;63163;55.630;37.594;2023-04-01T00:54:52;13.0;;;7.3;;
74644;SDS011;63163;55.630;37.594;2023-04-01T00:55:56;12.9;;;7.9;;
74644;SDS011;63163;55.630;37.594;2023-04-01T00:56:59;15.3;;;8.0;;
74644;SDS011;63163;55.630;37.594;2023-04-01T00:58:02;13.0;;;7.9;;
74644;SDS011;63163;55.630;37.594;2023-04-01T00:59:04;14.6;;;7.9;;
74644;SDS011;63163;55.630;37.594;2023-04-01T01:00:09;13.6;;;7.5;;
74644;SDS011;63163;55.630;37.594;2023-04-01T01:01:11;13.9;;;8.0;;
74644;SDS011;63163;55.630;37.594;2023-04-01T01:02:12;13.8;;;7.4;;
74644;SDS011;63163;55.630;37.594;2023-04-01T01:03:13;12.9;;;7.7;;
74644;SDS011;63163;55.630;37.594;2023-04-01T01:04:21;13.2;;;7.8;;
74644;SDS011;63163;55.630;37.594;2023-04-01T01:05:23;12.8;;;7.8;;
74644;SDS011;63163;55.630;37.594;2023-04-01T01:06:31;14.0;;;8.1;;
74644;SDS011;63163;55.630;37.594;2023-04-01T01:07:40;14.6;;;8.1;;
74644;SDS011;63163;55.630;37.594;2023-04-01T01:08:47;13.5;;;7.7;;
74644;SDS011;63163;55.630;37.594;2023-04-01T01:09:53;13.5;;;7.9;;
74644;SDS011;63163;55.630;37.594;2023-04-01T01:10:56;12.8;;;7.3;;
74644;SDS011;63163;55.630;37.594;2023-04-01T01:11:59;14.6;;;7.8;;
74644;SDS011;63163;55.630;37.594;2023-04-01T01:13:04;12.8;;;7.5;;
74644;SDS011;63163;55.630;37.594;2023-04-01T01:14:10;13.4;;;7.3;;
74644;SDS011;63163;55.630;37.594;2023-04-01T01:15:15;12.8;;;8.0;;
74644;SDS011;63163;55.630;37.594;2023-04-01T01:16:20;13.0;;;7.9;;
74644;SDS011;63163;55.630;37.594;2023-04-01T01:17:25;13.6;;;8.1;;
74644;SDS011;63163;55.630;37.594;2023-04-01T01:18:29;12.1;;;7.5;;
74644;SDS011;63163;55.630;37.594;2023-04-01T01:19:40;12.5;;;7.5;;
74644;SDS011;63163;55.630;37.594;2023-04-01T01:20:52;12.5;;;7.5;;
74644;SDS011;63163;55.630;37.594;2023-04-01T01:22:01;13.5;;;7.7;;
74644;SDS011;63163;55.630;37.594;2023-04-01T01:23:15;14.8;;;8.0;;
74644;SDS011;63163;55.630;37.594;2023-04-01T01:24:28;13.2;;;8.3;;
74644;SDS011;63163;55.630;37.594;2023-04-01T01:25:32;13.0;;;8.0;;
74644;SDS011;63163;55.630;37.594;2023-04-01T01:26:37;14.3;;;7.9;;
74644;SDS011;63163;55.630;37.594;2023-04-01T01:27:39;11.9;;;7.6;;
74644;SDS011;63163;55.630;37.594;2023-04-01T01:28:44;12.4;;;7.3;;
74644;SDS011;63163;55.630;37.594;2023-04-01T01:30:51;11.7;;;7.5;;
74644;SDS011;63163;55.630;37.594;2023-04-01T01:31:56;13.9;;;8.0;;
74644;SDS011;63163;55.630;37.594;2023-04-01T01:33:02;13.5;;;7.7;;
74644;SDS011;63163;55.630;37.594;2023-04-01T01:34:11;14.2;;;7.9;;
74644;SDS011;63163;55.630;37.594;2023-04-01T01:35:16;13.0;;;7.9;;
74644;SDS011;63163;55.630;37.594;2023-04-01T01:36:19;12.3;;;7.4;;
74644;SDS011;63163;55.630;37.594;2023-04-01T01:37:22;13.5;;;7.8;;
74644;SDS011;63163;55.630;37.594;2023-04-01T01:38:24;13.9;;;8.0;;
74644;SDS011;63163;55.630;37.594;2023-04-01T01:39:27;14.0;;;7.8;;
74644;SDS011;63163;55.630;37.594;2023-04-01T01:40:29;13.0;;;7.8;;
74644;SDS011;63163;55.630;37.594;2023-04-01T01:41:31;14.3;;;7.9;;
74644;SDS011;63163;55.630;37.594;2023-04-01T01:42:33;12.8;;;8.0;;
74644;SDS011;63163;55.630;37.594;2023-04-01T01:43:36;15.2;;;8.2;;
74644;SDS011;63163;55.630;37.594;2023-04-01T01:44:37;12.6;;;7.6;;
74644;SDS011;63163;55.630;37.594;2023-04-01T01:45:39;15.0;;;8.2;;
74644;SDS011;63163;55.630;37.594;2023-04-01T01:46:41;12.6;;;7.7;;
74644;SDS011;63163;55.630;37.594;2023-04-01T01:47:42;13.5;;;8.1;;
74644;SDS011;63163;55.630;37.594;2023-04-01T01:48:43;13.9;;;7.9;;
74644;SDS011;63163;55.630;37.594;2023-04-01T01:49:45;14.4;;;7.8;;
74644;SDS011;63163;55.630;37.594;2023-04-01T01:50:46;12.9;;;7.7;;
74644;SDS011;63163;55.630;37.594;2023-04-01T01:51:47;14.4;;;7.7;;
74644;SDS011;63163;55.630;37.594;2023-04-01T01:52:48;12.4;;;7.7;;
74644;SDS011;63163;55.630;37.594;2023-04-01T01:53:49;12.5;;;7.6;;
74644;SDS011;63163;55.630;37.594;2023-04-01T01:54:49;12.6;;;7.8;;
74644;SDS011;63163;55.630;37.594;2023-04-01T01:55:50;13.6;;;7.7;;
74644;SDS011;63163;55.630;37.594;2023-04-01T01:56:55;12.8;;;7.6;;
74644;SDS011;63163;55.630;37.594;2023-04-01T01:57:58;14.5;;;7.9;;
74644;SDS011;63163;55.630;37.594;2023-04-01T01:59:00;13.5;;;7.5;;
74644;SDS011;63163;55.630;37.594;2023-04-01T02:00:04;12.8;;;7.3;;
74644;SDS011;63163;55.630;37.594;2023-04-01T02:01:13;14.9;;;8.4;;
74644;SDS011;63163;55.630;37.594;2023-04-01T02:02:15;12.7;;;7.0;;
74644;SDS011;63163;55.630;37.594;2023-04-01T02:03:17;14.1;;;8.5;;
74644;SDS011;63163;55.630;37.594;2023-04-01T02:04:19;16.8;;;8.6;;
74644;SDS011;63163;55.630;37.594;2023-04-01T02:05:21;15.6;;;8.9;;
74644;SDS011;63163;55.630;37.594;2023-04-01T02:06:24;13.2;;;8.3;;
74644;SDS011;63163;55.630;37.594;2023-04-01T02:07:27;13.1;;;7.5;;
74644;SDS011;63163;55.630;37.594;2023-04-01T02:08:29;13.9;;;8.4;;
74644;SDS011;63163;55.630;37.594;2023-04-01T02:09:31;12.7;;;8.0;;
74644;SDS011;63163;55.630;37.594;2023-04-01T02:10:32;14.5;;;8.0;;
74644;SDS011;63163;55.630;37.594;2023-04-01T02:11:35;15.6;;;7.9;;
74644;SDS011;63163;55.630;37.594;2023-04-01T02:12:37;15.4;;;8.6;;
74644;SDS011;63163;55.630;37.594;2023-04-01T02:13:39;13.8;;;7.9;;
74644;SDS011;63163;55.630;37.594;2023-04-01T02:14:42;15.6;;;8.7;;
74644;SDS011;63163;55.630;37.594;2023-04-01T02:15:45;12.9;;;7.5;;
74644;SDS011;63163;55.630;37.594;2023-04-01T02:16:49;12.9;;;7.5;;
74644;SDS011;63163;55.630;37.594;2023-04-01T02:17:51;12.9;;;7.5;;
74644;SDS011;63163;55.630;37.594;2023-04-01T02:18:52;12.9;;;7.5;;
74644;SDS011;63163;55.630;37.594;2023-04-01T02:19:56;12.9;;;7.5;;
74644;SDS011;63163;55.630;37.594;2023-04-01T02:20:57;12.9;;;7.5;;
74644;SDS011;63163;55.630;37.594;2023-04-01T02:22:00;12.9;;;7.5;;
74644;SDS011;63163;55.630;37.594;2023-04-01T02:23:01;12.9;;;7.5;;
74644;SDS011;63163;55.630;37.594;2023-04-01T02:24:04;12.9;;;7.5;;
74644;SDS011;63163;55.630;37.594;2023-04-01T02:25:06;12.9;;;7.5;;
74644;SDS011;63163;55.630;37.594;2023-04-01T02:26:07;12.9;;;7.5;;
74644;SDS011;63163;55.630;37.594;2023-04-01T02:27:10;12.9;;;7.5;;
74644;SDS011;63163;55.630;37.594;2023-04-01T02:28:11;12.9;;;7.5;;
74644;SDS011;63163;55.630;37.594;2023-04-01T02:29:13;12.9;;;7.5;;
74644;SDS011;63163;55.630;37.594;2023-04-01T02:30:15;12.9;;;7.5;;
74644;SDS011;63163;55.630;37.594;2023-04-01T02:31:15;12.9;;;7.5;;
74644;SDS011;63163;55.630;37.594;2023-04-01T02:32:16;12.9;;;7.5;;
74644;SDS011;63163;55.630;37.594;2023-04-01T02:33:18;12.9;;;7.5;;
74644;SDS011;63163;55.630;37.594;2023-04-01T02:34:19;12.9;;;7.5;;
74644;SDS011;63163;55.630;37.594;2023-04-01T02:35:20;12.9;;;7.5;;
74644;SDS011;63163;55.630;37.594;2023-04-01T02:36:20;12.9;;;7.5;;
74644;SDS011;63163;55.630;37.594;2023-04-01T02:37:21;12.9;;;7.5;;
74644;SDS011;63163;55.630;37.594;2023-04-01T02:38:22;12.9;;;7.5;;
74644;SDS011;63163;55.630;37.594;2023-04-01T02:39:23;12.9;;;7.5;;
74644;SDS011;63163;55.630;37.594;2023-04-01T02:40:25;12.9;;;7.5;;
74644;SDS011;63163;55.630;37.594;2023-04-01T02:41:26;12.9;;;7.5;;
74644;SDS011;63163;55.630;37.594;2023-04-01T02:42:26;12.9;;;7.5;;
74644;SDS011;63163;55.630;37.594;2023-04-01T02:43:27;12.9;;;7.5;;
74644;SDS011;63163;55.630;37.594;2023-04-01T02:44:28;12.9;;;7.5;;
74644;SDS011;63163;55.630;37.594;2023-04-01T02:45:28;12.9;;;7.5;;
74644;SDS011;63163;55.630;37.594;2023-04-01T02:46:29;12.9;;;7.5;;
74644;SDS011;63163;55.630;37.594;2023-04-01T02:47:30;12.9;;;7.5;;
74644;SDS011;63163;55.630;37.594;2023-04-01T02:48:30;12.9;;;7.5;;
74644;SDS011;63163;55.630;37.594;2023-04-01T02:49:31;12.9;;;7.5;;
74644;SDS011;63163;55.630;37.594;2023-04-01T02:50:32;12.9;;;7.5;;
74644;SDS011;63163;55.630;37.594;2023-04-01T02:51:33;12.9;;;7.5;;
74644;SDS011;63163;55.630;37.594;2023-04-01T02:52:33;12.9;;;7.5;;
74644;SDS011;63163;55.630;37.594;2023-04-01T02:53:34;12.9;;;7.5;;
74644;SDS011;63163;55.630;37.594;2023-04-01T02:54:35;12.9;;;7.5;;
74644;SDS011;63163;55.630;37.594;2023-04-01T02:55:35;12.9;;;7.5;;
74644;SDS011;63163;55.630;37.594;2023-04-01T02:56:36;12.9;;;7.5;;
74644;SDS011;63163;55.630;37.594;2023-04-01T02:57:36;12.9;;;7.5;;
74644;SDS011;63163;55.630;37.594;2023-04-01T02:58:37;12.9;;;7.5;;
74644;SDS011;63163;55.630;37.594;2023-04-01T02:59:38;12.9;;;7.5;;
74644;SDS011;63163;55.630;37.594;2023-04-01T03:00:38;12.9;;;7.5;;
74644;SDS011;63163;55.630;37.594;2023-04-01T03:01:39;12.9;;;7.5;;
74644;SDS011;63163;55.630;37.594;2023-04-01T03:02:40;12.9;;;7.5;;
74644;SDS011;63163;55.630;37.594;2023-04-01T03:03:40;12.9;;;7.5;;
74644;SDS011;63163;55.630;37.594;2023-04-01T03:04:41;12.9;;;7.5;;
74644;SDS011;63163;55.630;37.594;2023-04-01T03:05:42;12.9;;;7.5;;
74644;SDS011;63163;55.630;37.594;2023-04-01T03:06:42;12.9;;;7.5;;
74644;SDS011;63163;55.630;37.594;2023-04-01T03:07:43;12.9;;;7.5;;
74644;SDS011;63163;55.630;37.594;2023-04-01T03:08:44;12.9;;;7.5;;
74644;SDS011;63163;55.630;37.594;2023-04-01T03:09:45;12.9;;;7.5;;
74644;SDS011;63163;55.630;37.594;2023-04-01T03:10:45;12.9;;;7.5;;
74644;SDS011;63163;55.630;37.594;2023-04-01T03:11:46;12.9;;;7.5;;
74644;SDS011;63163;55.630;37.594;2023-04-01T03:12:46;12.9;;;7.5;;
74644;SDS011;63163;55.630;37.594;2023-04-01T03:13:47;12.9;;;7.5;;
74644;SDS011;63163;55.630;37.594;2023-04-01T03:14:48;12.9;;;7.5;;
74644;SDS011;63163;55.630;37.594;2023-04-01T03:15:49;12.9;;;7.5;;
74644;SDS011;63163;55.630;37.594;2023-04-01T03:16:50;12.9;;;7.5;;
74644;SDS011;63163;55.630;37.594;2023-04-01T03:17:50;12.9;;;7.5;;
74644;SDS011;63163;55.630;37.594;2023-04-01T03:18:51;12.9;;;7.5;;
74644;SDS011;63163;55.630;37.594;2023-04-01T03:19:53;12.9;;;7.5;;
74644;SDS011;63163;55.630;37.594;2023-04-01T03:20:54;12.9;;;7.5;;
74644;SDS011;63163;55.630;37.594;2023-04-01T03:21:54;12.9;;;7.5;;
74644;SDS011;63163;55.630;37.594;2023-04-01T03:22:55;12.9;;;7.5;;
74644;SDS011;63163;55.630;37.594;2023-04-01T03:23:56;12.9;;;7.5;;
74644;SDS011;63163;55.630;37.594;2023-04-01T03:24:56;12.9;;;7.5;;
74644;SDS011;63163;55.630;37.594;2023-04-01T03:25:57;12.9;;;7.5;;
74644;SDS011;63163;55.630;37.594;2023-04-01T03:26:57;12.9;;;7.5;;
74644;SDS011;63163;55.630;37.594;2023-04-01T03:27:58;12.9;;;7.5;;
74644;SDS011;63163;55.630;37.594;2023-04-01T03:29:00;12.9;;;7.5;;
74644;SDS011;63163;55.630;37.594;2023-04-01T03:30:00;12.9;;;7.5;;
74644;SDS011;63163;55.630;37.594;2023-04-01T03:31:01;12.9;;;7.5;;
74644;SDS011;63163;55.630;37.594;2023-04-01T03:32:01;12.9;;;7.5;;
74644;SDS011;63163;55.630;37.594;2023-04-01T03:33:02;12.9;;;7.5;;
74644;SDS011;63163;55.630;37.594;2023-04-01T03:34:03;12.9;;;7.5;;
74644;SDS011;63163;55.630;37.594;2023-04-01T03:35:04;12.9;;;7.5;;
74644;SDS011;63163;55.630;37.594;2023-04-01T03:36:05;12.9;;;7.5;;
74644;SDS011;63163;55.630;37.594;2023-04-01T03:37:06;12.9;;;7.5;;
74644;SDS011;63163;55.630;37.594;2023-04-01T03:38:07;12.9;;;7.5;;
74644;SDS011;63163;55.630;37.594;2023-04-01T03:39:07;12.9;;;7.5;;
74644;SDS011;63163;55.630;37.594;2023-04-01T03:40:08;12.9;;;7.5;;
74644;SDS011;63163;55.630;37.594;2023-04-01T03:41:13;12.9;;;7.5;;
74644;SDS011;63163;55.630;37.594;2023-04-01T03:42:13;12.9;;;7.5;;
74644;SDS011;63163;55.630;37.594;2023-04-01T03:43:14;12.9;;;7.5;;
74644;SDS011;63163;55.630;37.594;2023-04-01T03:44:16;12.9;;;7.5;;
74644;SDS011;63163;55.630;37.594;2023-04-01T03:45:17;12.9;;;7.5;;
74644;SDS011;63163;55.630;37.594;2023-04-01T03:46:18;12.9;;;7.5;;
74644;SDS011;63163;55.630;37.594;2023-04-01T03:47:19;12.9;;;7.5;;
74644;SDS011;63163;55.630;37.594;2023-04-01T03:48:20;12.9;;;7.5;;
74644;SDS011;63163;55.630;37.594;2023-04-01T03:49:20;12.9;;;7.5;;
74644;SDS011;63163;55.630;37.594;2023-04-01T03:50:21;12.9;;;7.5;;
74644;SDS011;63163;55.630;37.594;2023-04-01T03:51:21;12.9;;;7.5;;
74644;SDS011;63163;55.630;37.594;2023-04-01T03:52:22;12.9;;;7.5;;
74644;SDS011;63163;55.630;37.594;2023-04-01T03:53:23;12.9;;;7.5;;
74644;SDS011;63163;55.630;37.594;2023-04-01T03:54:23;12.9;;;7.5;;
74644;SDS011;63163;55.630;37.594;2023-04-01T03:55:24;12.9;;;7.5;;
74644;SDS011;63163;55.630;37.594;2023-04-01T03:56:25;12.9;;;7.5;;
74644;SDS011;63163;55.630;37.594;2023-04-01T03:57:25;12.9;;;7.5;;
74644;SDS011;63163;55.630;37.594;2023-04-01T03:58:26;12.9;;;7.5;;
74644;SDS011;63163;55.630;37.594;2023-04-01T03:59:27;12.9;;;7.5;;
74644;SDS011;63163;55.630;37.594;2023-04-01T04:00:27;12.9;;;7.5;;
74644;SDS011;63163;55.630;37.594;2023-04-01T04:01:28;12.9;;;7.5;;
74644;SDS011;63163;55.630;37.594;2023-04-01T04:02:29;12.9;;;7.5;;
74644;SDS011;63163;55.630;37.594;2023-04-01T04:03:30;12.9;;;7.5;;
74644;SDS011;63163;55.630;37.594;2023-04-01T04:04:30;12.9;;;7.5;;
74644;SDS011;63163;55.630;37.594;2023-04-01T04:05:32;12.9;;;7.5;;
74644;SDS011;63163;55.630;37.594;2023-04-01T04:06:33;12.9;;;7.5;;
74644;SDS011;63163;55.630;37.594;2023-04-01T04:07:33;12.9;;;7.5;;
74644;SDS011;63163;55.630;37.594;2023-04-01T04:08:34;12.9;;;7.5;;
74644;SDS011;63163;55.630;37.594;2023-04-01T04:09:35;12.9;;;7.5;;
74644;SDS011;63163;55.630;37.594;2023-04-01T04:10:35;12.9;;;7.5;;
74644;SDS011;63163;55.630;37.594;2023-04-01T04:11:36;12.9;;;7.5;;
74644;SDS011;63163;55.630;37.594;2023-04-01T04:12:37;12.9;;;7.5;;
74644;SDS011;63163;55.630;37.594;2023-04-01T04:13:37;12.9;;;7.5;;
74644;SDS011;63163;55.630;37.594;2023-04-01T04:14:38;12.9;;;7.5;;
74644;SDS011;63163;55.630;37.594;2023-04-01T04:15:38;12.9;;;7.5;;
74644;SDS011;63163;55.630;37.594;2023-04-01T04:16:39;12.9;;;7.5;;
74644;SDS011;63163;55.630;37.594;2023-04-01T04:17:40;12.9;;;7.5;;
74644;SDS011;63163;55.630;37.594;2023-04-01T04:18:41;12.9;;;7.5;;
74644;SDS011;63163;55.630;37.594;2023-04-01T04:19:42;12.9;;;7.5;;
74644;SDS011;63163;55.630;37.594;2023-04-01T04:20:43;12.9;;;7.5;;
74644;SDS011;63163;55.630;37.594;2023-04-01T04:21:45;12.9;;;7.5;;
74644;SDS011;63163;55.630;37.594;2023-04-01T04:22:46;12.9;;;7.5;;
74644;SDS011;63163;55.630;37.594;2023-04-01T04:23:46;12.9;;;7.5;;
74644;SDS011;63163;55.630;37.594;2023-04-01T04:24:47;12.9;;;7.5;;
74644;SDS011;63163;55.630;37.594;2023-04-01T04:25:56;12.9;;;7.5;;
74644;SDS011;63163;55.630;37.594;2023-04-01T04:26:57;12.9;;;7.5;;
74644;SDS011;63163;55.630;37.594;2023-04-01T04:27:57;12.9;;;7.5;;
74644;SDS011;63163;55.630;37.594;2023-04-01T04:28:58;12.9;;;7.5;;
74644;SDS011;63163;55.630;37.594;2023-04-01T04:29:59;12.9;;;7.5;;
74644;SDS011;63163;55.630;37.594;2023-04-01T04:30:59;12.9;;;7.5;;
74644;SDS011;63163;55.630;37.594;2023-04-01T04:32:00;12.9;;;7.5;;
74644;SDS011;63163;55.630;37.594;2023-04-01T04:33:00;12.9;;;7.5;;
74644;SDS011;63163;55.630;37.594;2023-04-01T04:34:01;12.9;;;7.5;;
74644;SDS011;63163;55.630;37.594;2023-04-01T04:35:02;12.9;;;7.5;;
74644;SDS011;63163;55.630;37.594;2023-04-01T04:36:03;12.9;;;7.5;;
74644;SDS011;63163;55.630;37.594;2023-04-01T04:37:04;12.9;;;7.5;;
74644;SDS011;63163;55.630;37.594;2023-04-01T04:38:05;12.9;;;7.5;;
74644;SDS011;63163;55.630;37.594;2023-04-01T04:39:05;12.9;;;7.5;;
74644;SDS011;63163;55.630;37.594;2023-04-01T04:40:06;12.9;;;7.5;;
74644;SDS011;63163;55.630;37.594;2023-04-01T04:41:08;12.9;;;7.5;;
74644;SDS011;63163;55.630;37.594;2023-04-01T04:42:09;12.9;;;7.5;;
74644;SDS011;63163;55.630;37.594;2023-04-01T04:43:10;12.9;;;7.5;;
74644;SDS011;63163;55.630;37.594;2023-04-01T04:44:11;12.9;;;7.5;;
74644;SDS011;63163;55.630;37.594;2023-04-01T04:45:11;12.9;;;7.5;;
74644;SDS011;63163;55.630;37.594;2023-04-01T04:46:12;12.9;;;7.5;;
74644;SDS011;63163;55.630;37.594;2023-04-01T04:47:13;12.9;;;7.5;;
74644;SDS011;63163;55.630;37.594;2023-04-01T04:48:15;12.9;;;7.5;;
74644;SDS011;63163;55.630;37.594;2023-04-01T04:49:18;12.9;;;7.5;;
74644;SDS011;63163;55.630;37.594;2023-04-01T04:50:19;12.9;;;7.5;;
74644;SDS011;63163;55.630;37.594;2023-04-01T04:51:20;12.9;;;7.5;;
74644;SDS011;63163;55.630;37.594;2023-04-01T04:52:20;12.9;;;7.5;;
74644;SDS011;63163;55.630;37.594;2023-04-01T04:53:21;12.9;;;7.5;;
74644;SDS011;63163;55.630;37.594;2023-04-01T04:54:22;12.9;;;7.5;;
74644;SDS011;63163;55.630;37.594;2023-04-01T04:55:22;12.9;;;7.5;;
74644;SDS011;63163;55.630;37.594;2023-04-01T04:56:23;12.9;;;7.5;;
74644;SDS011;63163;55.630;37.594;2023-04-01T04:57:25;12.9;;;7.5;;
74644;SDS011;63163;55.630;37.594;2023-04-01T04:58:26;12.9;;;7.5;;
74644;SDS011;63163;55.630;37.594;2023-04-01T04:59:26;12.9;;;7.5;;
74644;SDS011;63163;55.630;37.594;2023-04-01T05:00:27;12.9;;;7.5;;
74644;SDS011;63163;55.630;37.594;2023-04-01T05:01:27;12.9;;;7.5;;
74644;SDS011;63163;55.630;37.594;2023-04-01T05:02:28;12.9;;;7.5;;
74644;SDS011;63163;55.630;37.594;2023-04-01T05:03:29;12.9;;;7.5;;
74644;SDS011;63163;55.630;37.594;2023-04-01T05:04:29;12.9;;;7.5;;
74644;SDS011;63163;55.630;37.594;2023-04-01T05:05:30;12.9;;;7.5;;
74644;SDS011;63163;55.630;37.594;2023-04-01T05:06:30;12.9;;;7.5;;
74644;SDS011;63163;55.630;37.594;2023-04-01T13:25:53;14.3;;;5.1;;
74644;SDS011;63163;55.630;37.594;2023-04-01T13:27:00;8.1;;;4.0;;
74644;SDS011;63163;55.630;37.594;2023-04-01T13:28:06;9.3;;;4.7;;
74644;SDS011;63163;55.630;37.594;2023-04-01T13:29:10;12.0;;;4.5;;
74644;SDS011;63163;55.630;37.594;2023-04-01T13:30:18;8.6;;;4.6;;
74644;SDS011;63163;55.630;37.594;2023-04-01T13:31:25;9.2;;;4.3;;
74644;SDS011;63163;55.630;37.594;2023-04-01T13:32:29;7.0;;;3.8;;
74644;SDS011;63163;55.630;37.594;2023-04-01T13:33:32;7.8;;;4.1;;
74644;SDS011;63163;55.630;37.594;2023-04-01T13:34:39;8.3;;;4.0;;
74644;SDS011;63163;55.630;37.594;2023-04-01T13:35:48;9.7;;;4.5;;
74644;SDS011;63163;55.630;37.594;2023-04-01T13:36:55;9.0;;;3.9;;
74644;SDS011;63163;55.630;37.594;2023-04-01T13:38:00;9.4;;;4.5;;
74644;SDS011;63163;55.630;37.594;2023-04-01T13:39:10;11.9;;;4.2;;
74644;SDS011;63163;55.630;37.594;2023-04-01T13:40:17;9.0;;;4.2;;
74644;SDS011;63163;55.630;37.594;2023-04-01T13:41:23;9.9;;;3.8;;
74644;SDS011;63163;55.630;37.594;2023-04-01T13:42:26;9.5;;;4.6;;
74644;SDS011;63163;55.630;37.594;2023-04-01T13:43:29;7.6;;;4.0;;
74644;SDS011;63163;55.630;37.594;2023-04-01T13:44:33;6.7;;;3.4;;
74644;SDS011;63163;55.630;37.594;2023-04-01T13:45:38;9.0;;;3.5;;
74644;SDS011;63163;55.630;37.594;2023-04-01T13:47:02;9.4;;;3.8;;
74644;SDS011;63163;55.630;37.594;2023-04-01T13:48:14;8.7;;;4.8;;
74644;SDS011;63163;55.630;37.594;2023-04-01T13:49:26;8.2;;;4.6;;
74644;SDS011;63163;55.630;37.594;2023-04-01T13:50:34;8.5;;;4.4;;
74644;SDS011;63163;55.630;37.594;2023-04-01T13:51:43;8.8;;;4.6;;
74644;SDS011;63163;55.630;37.594;2023-04-01T13:52:56;7.7;;;3.8;;
74644;SDS011;63163;55.630;37.594;2023-04-01T13:54:01;8.3;;;3.9;;
74644;SDS011;63163;55.630;37.594;2023-04-01T13:55:07;8.3;;;3.9;;
74644;SDS011;63163;55.630;37.594;2023-04-01T13:56:16;8.3;;;3.9;;
74644;SDS011;63163;55.630;37.594;2023-04-01T13:57:24;8.3;;;3.9;;
74644;SDS011;63163;55.630;37.594;2023-04-01T13:58:35;8.3;;;3.9;;
74644;SDS011;63163;55.630;37.594;2023-04-01T13:59:41;8.3;;;3.9;;
74644;SDS011;63163;55.630;37.594;2023-04-01T14:00:51;8.3;;;3.9;;
74644;SDS011;63163;55.630;37.594;2023-04-01T14:01:55;8.3;;;3.9;;
74644;SDS011;63163;55.630;37.594;2023-04-01T14:03:03;8.3;;;3.9;;
74644;SDS011;63163;55.630;37.594;2023-04-01T14:04:16;8.3;;;3.9;;
74644;SDS011;63163;55.630;37.594;2023-04-01T14:05:32;8.3;;;3.9;;
74644;SDS011;63163;55.630;37.594;2023-04-01T14:06:37;8.3;;;3.9;;
74644;SDS011;63163;55.630;37.594;2023-04-01T14:07:45;8.3;;;3.9;;
74644;SDS011;63163;55.630;37.594;2023-04-01T14:08:55;8.3;;;3.9;;
74644;SDS011;63163;55.630;37.594;2023-04-01T14:09:59;8.3;;;3.9;;
74644;SDS011;63163;55.630;37.594;2023-04-01T14:11:07;8.3;;;3.9;;
74644;SDS011;63163;55.630;37.594;2023-04-01T14:12:12;8.3;;;3.9;;
74644;SDS011;63163;55.630;37.594;2023-04-01T14:13:15;8.3;;;3.9;;
74644;SDS011;63163;55.630;37.594;2023-04-01T14:14:20;8.3;;;3.9;;
74644;SDS011;63163;55.630;37.594;2023-04-01T14:15:26;8.3;;;3.9;;
74644;SDS011;63163;55.630;37.594;2023-04-01T14:16:38;8.3;;;3.9;;
74644;SDS011;63163;55.630;37.594;2023-04-01T14:17:45;8.3;;;3.9;;
74644;SDS011;63163;55.630;37.594;2023-04-01T14:18:52;8.3;;;3.9;;
74644;SDS011;63163;55.630;37.594;2023-04-01T14:20:01;8.3;;;3.9;;
74644;SDS011;63163;55.630;37.594;2023-04-01T14:21:09;8.3;;;3.9;;
74644;SDS011;63163;55.630;37.594;2023-04-01T14:22:13;8.3;;;3.9;;
74644;SDS011;63163;55.630;37.594;2023-04-01T14:23:21;8.3;;;3.9;;
74644;SDS011;63163;55.630;37.594;2023-04-01T14:24:29;8.3;;;3.9;;
74644;SDS011;63163;55.630;37.594;2023-04-01T14:25:39;8.3;;;3.9;;
74644;SDS011;63163;55.630;37.594;2023-04-01T14:26:47;8.3;;;3.9;;
74644;SDS011;63163;55.630;37.594;2023-04-01T14:27:53;8.3;;;3.9;;
74644;SDS011;63163;55.630;37.594;2023-04-01T14:28:57;8.3;;;3.9;;
74644;SDS011;63163;55.630;37.594;2023-04-01T14:30:05;8.3;;;3.9;;
74644;SDS011;63163;55.630;37.594;2023-04-01T14:32:15;8.3;;;3.9;;
74644;SDS011;63163;55.630;37.594;2023-04-01T14:33:26;8.3;;;3.9;;
74644;SDS011;63163;55.630;37.594;2023-04-01T14:34:34;8.3;;;3.9;;
74644;SDS011;63163;55.630;37.594;2023-04-01T14:35:38;8.3;;;3.9;;
74644;SDS011;63163;55.630;37.594;2023-04-01T14:36:50;8.3;;;3.9;;
74644;SDS011;63163;55.630;37.594;2023-04-01T14:37:57;8.3;;;3.9;;
74644;SDS011;63163;55.630;37.594;2023-04-01T14:39:00;8.3;;;3.9;;
74644;SDS011;63163;55.630;37.594;2023-04-01T14:40:40;8.3;;;3.9;;